Athens, Georgia
Current Conditions -  °F | °C
As of 7:51 AM on Friday 28 Nov 2014 (Local Time) from KAHN Reporting Station
Clear Clear  
Wind Chill: 27°   Ceiling: Unl
Heat Index: 27°   Visibility: 10mi
Dew Point: 21°   Wind: 3mph
Humidity: 78%   Direction: 300°WNW
Pressure: 30.38"   Gusts: NA
Location:  33.96°N, 83.37°W
Report Text: KAHN 281251Z 30003KT 10SM CLR M03/M06 A3038 RMK AO2 SLP294 T10281061
Loading
Personal Weather Stations






























Interactive Weather Map New forecast layout! Learn more

10-Day Weather Forecast

Advertisements
Track Severe Weather on mobile